Time;durP1;ratioP1;P1;durP2;ratioP2;P2;SDS_P1;SDS_P2;PMS_P1;PMS_P2;Temp;Humidity;BMP_temperature;BMP_pressure;BME280_temperature;BME280_humidity;BME280_pressure;Samples;Min_cycle;Max_cycle;Signal;HPM_P1;HPM_P2
2022/11/04 00:01:59;;;;;;;15.20;9.45;;;0.40;95.20;;;;;;5005356;28;20050;-85
2022/11/04 00:04:26;;;;;;;12.60;9.23;;;0.30;95.20;;;;;;4998651;28;20117;-85
2022/11/04 00:06:53;;;;;;;12.35;8.57;;;0.30;95.30;;;;;;5013544;28;20021;-85
2022/11/04 00:09:21;;;;;;;14.40;9.80;;;0.30;95.40;;;;;;5003876;28;20025;-85
2022/11/04 00:14:33;;;;;;;14.52;9.40;;;0.30;95.50;;;;;;5028212;28;20033;-86
2022/11/04 00:33:24;;;;;;;15.40;9.57;;;0.30;95.70;;;;;;5003172;28;20068;-87
2022/11/04 00:33:43;;;;;;;;;;;0.30;95.70;;;;;;5013514;28;20071;-87
2022/11/04 00:36:09;;;;;;;14.07;8.85;;;0.40;95.70;;;;;;5013254;28;20363;-87
2022/11/04 00:38:34;;;;;;;14.88;9.48;;;0.40;95.60;;;;;;5006531;28;20109;-86
2022/11/04 00:41:00;;;;;;;15.95;10.50;;;0.40;95.60;;;;;;5013529;28;20137;-87
2022/11/04 00:43:26;;;;;;;15.38;10.77;;;0.40;95.60;;;;;;5011469;28;20034;-88
2022/11/04 00:45:52;;;;;;;16.45;10.18;;;0.40;95.60;;;;;;5014789;28;20032;-88
2022/11/04 00:48:18;;;;;;;20.85;9.85;;;0.40;95.70;;;;;;5014073;28;20022;-87
2022/11/04 00:50:44;;;;;;;17.70;10.90;;;0.40;95.60;;;;;;5018686;28;20080;-87
2022/11/04 00:53:09;;;;;;;22.25;11.82;;;0.40;95.50;;;;;;5031692;28;20041;-87
2022/11/04 00:55:35;;;;;;;15.27;10.52;;;0.30;95.50;;;;;;5030575;28;20026;-88
2022/11/04 00:58:01;;;;;;;13.27;9.75;;;0.30;95.50;;;;;;5022373;28;20151;-87
2022/11/04 01:00:27;;;;;;;18.33;10.95;;;0.30;95.50;;;;;;5037559;28;20082;-88
2022/11/04 01:02:54;;;;;;;17.05;10.77;;;0.20;95.60;;;;;;5031615;28;20088;-86
2022/11/04 01:05:20;;;;;;;23.08;12.15;;;0.20;95.70;;;;;;5018404;28;20021;-88
2022/11/04 01:07:46;;;;;;;13.27;9.80;;;0.20;95.70;;;;;;5029756;28;20490;-87
2022/11/04 01:10:12;;;;;;;16.58;10.88;;;0.20;95.70;;;;;;5022477;28;20030;-89
2022/11/04 01:12:38;;;;;;;13.77;10.80;;;0.20;95.80;;;;;;5014917;28;20075;-87
2022/11/04 01:15:04;;;;;;;13.73;10.73;;;0.20;95.80;;;;;;4998824;28;20042;-88
2022/11/04 01:17:30;;;;;;;17.98;10.07;;;0.30;95.80;;;;;;5016991;28;20388;-87
2022/11/04 01:19:56;;;;;;;13.57;9.65;;;0.30;95.80;;;;;;5015120;28;20053;-89
2022/11/04 01:22:22;;;;;;;13.75;9.65;;;0.30;95.80;;;;;;4997730;28;20025;-91
2022/11/04 01:24:48;;;;;;;14.40;10.32;;;0.30;95.80;;;;;;5018118;28;20037;-89
2022/11/04 01:27:13;;;;;;;16.63;10.73;;;0.30;95.80;;;;;;5021797;28;20081;-89
2022/11/04 01:29:39;;;;;;;14.70;9.77;;;0.30;95.70;;;;;;5000989;28;20099;-89
2022/11/04 01:32:05;;;;;;;16.33;10.45;;;0.30;95.70;;;;;;5001250;28;20026;-89
2022/11/04 01:34:31;;;;;;;16.23;11.65;;;0.30;95.70;;;;;;4995669;28;20503;-88
2022/11/04 01:36:57;;;;;;;23.58;12.65;;;0.30;95.70;;;;;;5013578;28;20099;-88
2022/11/04 01:39:23;;;;;;;15.07;11.13;;;0.30;95.70;;;;;;5013535;28;20041;-90
2022/11/04 01:41:49;;;;;;;19.17;11.55;;;0.20;95.70;;;;;;4997299;28;20041;-90
2022/11/04 01:44:47;;;;;;;17.98;12.20;;;0.30;95.90;;;;;;5011028;28;20033;-89
2022/11/04 01:47:46;;;;;;;20.23;12.43;;;0.30;95.70;;;;;;4982103;28;20507;-88
2022/11/04 01:50:21;;;;;;;20.92;11.77;;;0.30;95.70;;;;;;5014011;28;20042;-86
2022/11/04 01:53:06;;;;;;;18.33;10.05;;;0.30;95.70;;;;;;5010528;28;20025;-87
2022/11/04 01:55:34;;;;;;;19.65;12.20;;;0.20;95.80;;;;;;5014605;28;20025;-87
2022/11/04 01:58:09;;;;;;;18.73;12.23;;;0.20;95.80;;;;;;5031349;28;20108;-86
2022/11/04 02:00:38;;;;;;;18.23;11.55;;;0.20;95.80;;;;;;5012291;28;20048;-85
2022/11/04 02:03:21;;;;;;;16.80;10.68;;;0.20;95.90;;;;;;5012377;28;20456;-86
2022/11/04 02:05:47;;;;;;;18.92;11.05;;;0.20;95.80;;;;;;5023018;28;20021;-85
2022/11/04 02:08:15;;;;;;;17.08;11.95;;;0.20;95.80;;;;;;5023104;28;20432;-87
2022/11/04 02:11:00;;;;;;;18.77;12.05;;;0.20;95.90;;;;;;5034295;28;20069;-84
2022/11/04 02:13:27;;;;;;;17.20;11.38;;;0.30;96.00;;;;;;5032558;28;20018;-87
2022/11/04 02:15:59;;;;;;;21.77;11.55;;;0.30;95.80;;;;;;5030933;28;20033;-88
2022/11/04 02:18:50;;;;;;;20.45;12.27;;;0.30;95.90;;;;;;5016367;28;20391;-87
2022/11/04 02:21:34;;;;;;;14.65;10.68;;;0.40;95.90;;;;;;5016269;28;20424;-88
2022/11/04 02:24:06;;;;;;;14.77;9.63;;;0.40;95.50;;;;;;5013999;28;20030;-88
2022/11/04 02:26:51;;;;;;;17.83;10.73;;;0.40;95.40;;;;;;5029254;28;20036;-87
2022/11/04 02:29:34;;;;;;;16.42;9.52;;;0.30;95.50;;;;;;5021727;28;20041;-87
2022/11/04 02:32:32;;;;;;;14.77;9.95;;;0.30;95.70;;;;;;5016529;28;20022;-86
2022/11/04 02:35:26;;;;;;;16.73;10.73;;;0.30;95.70;;;;;;5015015;28;20042;-85
2022/11/04 02:38:29;;;;;;;16.27;9.88;;;0.30;95.70;;;;;;5015727;28;20053;-88
2022/11/04 02:41:13;;;;;;;18.83;10.57;;;0.30;95.70;;;;;;4993995;28;20150;-88
2022/11/04 02:44:12;;;;;;;17.73;11.57;;;0.30;95.70;;;;;;4995801;28;20132;-87
2022/11/04 02:46:48;;;;;;;23.42;12.38;;;0.30;95.70;;;;;;4990522;28;20026;-90
2022/11/04 02:49:26;;;;;;;17.17;9.98;;;0.30;95.70;;;;;;4987372;28;20026;-89
2022/11/04 02:52:02;;;;;;;17.45;10.25;;;0.40;95.90;;;;;;4998365;28;20609;-88
2022/11/04 02:54:51;;;;;;;14.95;9.20;;;0.40;95.60;;;;;;4998314;28;20054;-87
2022/11/04 02:57:21;;;;;;;16.25;9.63;;;0.40;95.50;;;;;;4991479;28;20036;-88
2022/11/04 03:00:00;;;;;;;18.33;11.23;;;0.40;95.40;;;;;;4994667;28;20391;-88
2022/11/04 03:02:51;;;;;;;16.65;9.93;;;0.30;95.40;;;;;;5006867;28;20046;-86
2022/11/04 03:05:24;;;;;;;14.32;9.95;;;0.30;95.30;;;;;;5004345;28;20026;-88
2022/11/04 03:07:52;;;;;;;16.55;10.57;;;0.30;95.40;;;;;;4997677;28;20419;-87
2022/11/04 03:10:34;;;;;;;14.25;9.95;;;0.30;95.40;;;;;;5002383;28;20026;-88
2022/11/04 03:13:17;;;;;;;15.10;10.35;;;0.30;95.40;;;;;;5018351;28;20032;-86
2022/11/04 03:16:00;;;;;;;17.85;10.90;;;0.40;95.20;;;;;;4989890;28;20035;-88
2022/11/04 03:18:32;;;;;;;17.85;9.93;;;0.30;95.20;;;;;;4996973;28;20038;-88
2022/11/04 03:21:04;;;;;;;17.83;11.93;;;0.30;95.20;;;;;;4995885;28;20109;-86
2022/11/04 03:23:30;;;;;;;15.50;9.73;;;0.30;95.20;;;;;;4993137;28;20081;-86
2022/11/04 03:26:06;;;;;;;20.58;11.80;;;0.20;95.10;;;;;;5017333;28;20052;-86
2022/11/04 03:28:45;;;;;;;18.27;12.75;;;0.10;95.20;;;;;;4995003;28;20427;-88
2022/11/04 03:31:20;;;;;;;18.42;10.60;;;0.10;95.20;;;;;;4992872;28;20076;-87
2022/11/04 03:33:51;;;;;;;16.30;10.25;;;0.00;95.20;;;;;;4976960;28;20059;-86
2022/11/04 03:36:19;;;;;;;18.20;11.10;;;-0.10;95.30;;;;;;5006456;28;20042;-86
2022/11/04 03:38:45;;;;;;;;;;;-0.10;95.40;;;;;;5000117;28;20177;-86
2022/11/04 03:41:26;;;;;;;17.63;9.98;;;-0.20;95.40;;;;;;5030337;28;19957;-88
2022/11/04 03:43:52;;;;;;;18.90;11.38;;;-0.20;95.50;;;;;;5024340;28;20746;-87
2022/11/04 03:46:18;;;;;;;19.92;11.05;;;-0.20;95.50;;;;;;5029859;28;20114;-87
2022/11/04 03:48:46;;;;;;;14.50;10.25;;;-0.20;95.70;;;;;;5015371;28;20048;-87
2022/11/04 03:51:11;;;;;;;16.77;10.10;;;-0.10;95.70;;;;;;5011664;28;20026;-87
2022/11/04 03:53:37;;;;;;;15.80;10.43;;;-0.10;95.60;;;;;;5038025;28;20028;-89
2022/11/04 03:56:21;;;;;;;18.95;10.13;;;-0.20;95.60;;;;;;5038019;28;20120;-86
2022/11/04 03:59:23;;;;;;;14.93;9.63;;;-0.10;95.60;;;;;;5031875;28;20018;-88
2022/11/04 04:01:59;;;;;;;19.10;11.57;;;-0.20;95.60;;;;;;5036582;28;20053;-89
2022/11/04 04:04:31;;;;;;;22.42;13.23;;;-0.20;95.60;;;;;;5031703;28;20122;-88
2022/11/04 04:07:05;;;;;;;17.50;11.02;;;-0.20;95.70;;;;;;5055329;28;20111;-89
2022/11/04 04:09:47;;;;;;;17.80;11.13;;;-0.10;95.70;;;;;;5015946;28;20451;-89
2022/11/04 04:12:22;;;;;;;18.00;11.73;;;-0.10;95.80;;;;;;5010843;28;20080;-86
2022/11/04 04:14:52;;;;;;;18.17;11.05;;;-0.10;95.80;;;;;;5033922;28;20017;-87
2022/11/04 04:17:33;;;;;;;28.23;11.90;;;0.00;95.80;;;;;;5036780;28;20022;-87
2022/11/04 04:20:03;;;;;;;15.70;10.00;;;-0.10;95.70;;;;;;5019562;28;20025;-85
2022/11/04 04:22:40;;;;;;;20.13;11.55;;;0.00;95.70;;;;;;5010227;28;20084;-85
2022/11/04 04:27:54;;;;;;;;;;;0.00;95.70;;;;;;5037293;28;20128;-86
2022/11/04 04:30:20;;;;;;;20.05;13.30;;;0.10;95.70;;;;;;5024005;28;19937;-86
2022/11/04 04:32:54;;;;;;;19.48;10.93;;;0.00;95.50;;;;;;5036358;28;20068;-88
2022/11/04 04:35:42;;;;;;;21.00;11.77;;;0.10;95.50;;;;;;5036540;28;20026;-87
2022/11/04 04:46:50;;;;;;;17.85;10.05;;;0.10;95.40;;;;;;5041078;28;20052;-87
2022/11/04 04:49:16;;;;;;;16.98;9.85;;;0.10;95.10;;;;;;5038252;28;20048;-89
2022/11/04 04:51:45;;;;;;;17.50;10.20;;;0.10;95.00;;;;;;5035870;28;20431;-84
2022/11/04 04:54:11;;;;;;;19.02;10.15;;;0.00;95.00;;;;;;5029819;28;20105;-85
2022/11/04 04:56:37;;;;;;;13.68;9.60;;;0.00;95.00;;;;;;5041842;28;20029;-85
2022/11/04 04:59:03;;;;;;;16.33;9.30;;;0.00;95.00;;;;;;5031547;28;20089;-86
2022/11/04 05:01:29;;;;;;;13.60;8.35;;;0.00;94.90;;;;;;5020284;28;20081;-84
2022/11/04 05:03:55;;;;;;;12.25;8.02;;;-0.10;94.90;;;;;;5037488;28;20389;-87
2022/11/04 05:06:20;;;;;;;10.65;5.97;;;-0.10;95.00;;;;;;5036801;28;20105;-88
2022/11/04 05:08:46;;;;;;;9.57;6.68;;;-0.10;95.00;;;;;;5036879;28;20029;-86
2022/11/04 05:11:12;;;;;;;12.20;6.28;;;-0.10;94.80;;;;;;5016063;28;20022;-87
2022/11/04 05:13:38;;;;;;;11.88;7.05;;;-0.10;94.80;;;;;;5035404;28;20025;-86
2022/11/04 05:16:07;;;;;;;10.07;6.55;;;-0.10;94.80;;;;;;5028773;28;20048;-86
2022/11/04 05:18:33;;;;;;;9.27;5.35;;;-0.10;94.90;;;;;;5035830;28;20497;-87
2022/11/04 05:21:03;;;;;;;10.70;6.10;;;-0.20;94.70;;;;;;5035943;28;20087;-90
2022/11/04 05:23:29;;;;;;;10.27;6.45;;;-0.20;94.70;;;;;;5018009;28;20112;-87
2022/11/04 05:25:57;;;;;;;9.93;6.50;;;-0.10;94.80;;;;;;5036104;28;20095;-87
2022/11/04 05:28:23;;;;;;;9.60;6.60;;;-0.10;94.60;;;;;;5038084;28;20017;-89
2022/11/04 05:30:51;;;;;;;11.35;7.28;;;-0.10;94.60;;;;;;5026069;28;20091;-87
2022/11/04 05:33:16;;;;;;;11.98;7.90;;;-0.10;94.60;;;;;;5039604;28;20033;-90
2022/11/04 05:35:42;;;;;;;11.27;6.93;;;-0.10;94.70;;;;;;5037192;28;20038;-89
2022/11/04 05:38:09;;;;;;;11.10;7.43;;;-0.10;94.70;;;;;;5037743;28;20014;-88
2022/11/04 05:40:35;;;;;;;10.95;6.65;;;-0.10;94.80;;;;;;5036976;28;20045;-88
2022/11/04 05:43:02;;;;;;;11.27;7.10;;;-0.10;94.70;;;;;;5045032;28;20105;-87
2022/11/04 05:45:29;;;;;;;10.25;6.38;;;0.00;94.70;;;;;;5044150;28;20104;-87
2022/11/04 05:48:03;;;;;;;10.63;6.80;;;0.00;94.70;;;;;;5022282;28;20045;-89
2022/11/04 05:50:31;;;;;;;10.85;6.75;;;0.00;94.60;;;;;;5049284;28;20102;-89
2022/11/04 05:52:58;;;;;;;9.32;7.03;;;0.10;94.70;;;;;;5010909;28;20018;-90
2022/11/04 05:55:24;;;;;;;12.32;7.57;;;0.10;94.70;;;;;;5029837;28;20018;-89
2022/11/04 05:57:50;;;;;;;12.27;8.43;;;0.10;94.60;;;;;;5047680;28;20048;-88
2022/11/04 06:00:16;;;;;;;11.75;7.78;;;0.10;94.60;;;;;;5033300;28;20033;-88
2022/11/04 06:02:43;;;;;;;10.43;6.93;;;0.20;94.70;;;;;;5054785;28;20029;-88
2022/11/04 06:05:10;;;;;;;12.75;7.60;;;0.20;94.60;;;;;;5038896;28;20079;-87
2022/11/04 06:07:36;;;;;;;11.50;7.63;;;0.20;94.60;;;;;;5042534;28;20049;-88
2022/11/04 06:10:03;;;;;;;9.93;6.25;;;0.30;94.60;;;;;;5031456;28;20033;-89
2022/11/04 06:12:29;;;;;;;10.52;6.00;;;0.30;94.40;;;;;;5021604;28;20056;-88
2022/11/04 06:14:58;;;;;;;11.65;6.30;;;0.30;94.40;;;;;;5042120;28;20032;-86
2022/11/04 06:17:24;;;;;;;15.40;6.82;;;0.30;94.40;;;;;;5051028;28;20028;-88
2022/11/04 06:19:50;;;;;;;11.68;8.32;;;0.30;94.40;;;;;;5040222;28;20021;-88
2022/11/04 06:22:17;;;;;;;8.57;6.70;;;0.30;94.40;;;;;;5020963;28;20518;-88
2022/11/04 06:24:44;;;;;;;10.32;6.50;;;0.40;94.40;;;;;;5037624;28;20010;-86
2022/11/04 06:27:11;;;;;;;11.93;7.60;;;0.40;94.30;;;;;;5037642;28;20395;-87
2022/11/04 06:29:39;;;;;;;11.70;6.50;;;0.40;94.20;;;;;;5035323;28;20112;-86
2022/11/04 06:32:10;;;;;;;14.98;8.95;;;0.40;94.20;;;;;;5018417;28;20247;-86
2022/11/04 06:34:36;;;;;;;9.43;6.65;;;0.50;94.20;;;;;;5036083;28;20075;-88
2022/11/04 06:37:03;;;;;;;11.85;5.97;;;0.40;94.20;;;;;;5034673;28;20029;-86
2022/11/04 06:39:29;;;;;;;13.05;6.55;;;0.50;94.20;;;;;;5035207;28;20042;-88
2022/11/04 06:41:55;;;;;;;9.77;6.45;;;0.50;94.20;;;;;;5032384;28;20026;-86
2022/11/04 06:44:20;;;;;;;9.95;6.85;;;0.60;94.20;;;;;;5036236;28;20435;-86
2022/11/04 06:46:47;;;;;;;13.10;7.38;;;0.60;94.00;;;;;;5035916;28;20068;-90
2022/11/04 06:49:16;;;;;;;10.57;6.80;;;0.60;93.90;;;;;;5017813;28;20104;-86
2022/11/04 06:51:42;;;;;;;10.15;6.20;;;0.70;94.00;;;;;;5034490;28;20075;-87
2022/11/04 06:54:09;;;;;;;10.68;6.25;;;0.70;93.90;;;;;;5028305;28;20056;-88
2022/11/04 06:56:35;;;;;;;11.85;7.00;;;0.70;93.90;;;;;;5016191;28;20083;-88
2022/11/04 06:59:02;;;;;;;13.45;7.70;;;0.80;93.90;;;;;;5029866;28;20022;-88
2022/11/04 07:01:30;;;;;;;12.07;6.80;;;0.70;93.80;;;;;;5039377;28;20018;-88
2022/11/04 07:03:58;;;;;;;10.25;6.85;;;0.80;93.80;;;;;;5034864;28;20033;-89
2022/11/04 07:06:25;;;;;;;11.05;7.90;;;0.90;93.80;;;;;;5035875;28;20025;-90
2022/11/04 07:08:52;;;;;;;12.57;7.60;;;0.90;93.70;;;;;;5033308;28;20037;-88
2022/11/04 07:11:20;;;;;;;12.48;7.20;;;0.90;93.60;;;;;;5036887;28;20036;-87
2022/11/04 07:13:47;;;;;;;12.30;6.88;;;1.00;93.60;;;;;;5036679;28;20442;-86
2022/11/04 07:16:14;;;;;;;17.88;7.53;;;0.90;93.50;;;;;;5033045;28;20053;-87
2022/11/04 07:18:40;;;;;;;11.98;7.28;;;0.90;93.30;;;;;;5038984;28;20045;-88
2022/11/04 07:21:07;;;;;;;12.80;7.63;;;0.90;93.40;;;;;;5027281;28;20064;-89
2022/11/04 07:23:33;;;;;;;11.57;7.75;;;1.00;93.40;;;;;;5024625;28;20017;-91
2022/11/04 07:26:05;;;;;;;13.43;7.28;;;1.00;93.50;;;;;;5012270;28;20026;-90
2022/11/04 07:28:32;;;;;;;15.27;8.65;;;1.00;93.60;;;;;;5040955;28;20032;-89
2022/11/04 07:30:59;;;;;;;12.38;7.78;;;1.00;93.70;;;;;;5008923;28;20033;-90
2022/11/04 07:33:26;;;;;;;11.32;7.50;;;1.10;93.70;;;;;;5020451;28;20093;-92
2022/11/04 07:35:53;;;;;;;14.03;7.07;;;1.10;93.70;;;;;;5039535;28;20055;-90
2022/11/04 07:38:20;;;;;;;15.10;6.82;;;1.10;93.80;;;;;;5023167;28;20021;-90
2022/11/04 07:40:46;;;;;;;14.15;6.25;;;1.10;93.80;;;;;;5054200;28;20041;-93
2022/11/04 07:43:12;;;;;;;9.52;5.95;;;1.10;93.80;;;;;;5044284;28;20029;-90
2022/11/04 07:45:39;;;;;;;8.65;6.47;;;1.10;93.90;;;;;;5028983;28;20025;-91
2022/11/04 07:48:05;;;;;;;11.43;7.05;;;1.10;94.00;;;;;;5022484;28;20044;-90
2022/11/04 07:50:31;;;;;;;18.60;7.00;;;1.10;94.10;;;;;;5015584;28;20029;-93
2022/11/04 07:52:59;;;;;;;22.10;7.45;;;1.10;94.10;;;;;;5030109;28;20025;-89
2022/11/04 07:55:26;;;;;;;10.18;6.72;;;1.20;94.10;;;;;;5037424;28;20056;-92
2022/11/04 07:57:56;;;;;;;14.80;8.40;;;1.20;94.10;;;;;;5016405;28;20105;-93
2022/11/04 08:00:24;;;;;;;15.15;9.85;;;1.30;94.10;;;;;;5030528;28;20041;-93
2022/11/04 08:02:51;;;;;;;21.52;14.13;;;1.30;94.00;;;;;;5049168;28;20030;-92
2022/11/04 08:05:18;;;;;;;22.20;12.60;;;1.30;93.80;;;;;;5030144;28;20486;-92
2022/11/04 08:07:44;;;;;;;23.43;15.37;;;1.30;93.90;;;;;;5020878;28;20018;-91
2022/11/04 08:10:10;;;;;;;21.50;13.52;;;1.30;94.10;;;;;;5017136;28;20298;-91
2022/11/04 08:12:37;;;;;;;17.63;10.57;;;1.30;94.10;;;;;;5046384;28;20026;-91
2022/11/04 08:15:07;;;;;;;15.05;9.73;;;1.30;94.10;;;;;;5050648;28;20029;-91
2022/11/04 08:17:34;;;;;;;22.83;9.95;;;1.30;94.10;;;;;;5031663;28;20033;-90
2022/11/04 08:20:00;;;;;;;14.70;9.25;;;1.30;94.20;;;;;;5036944;28;20044;-85
2022/11/04 08:22:25;;;;;;;17.30;9.18;;;1.30;94.30;;;;;;5024527;28;20034;-89
2022/11/04 08:24:51;;;;;;;16.58;8.75;;;1.30;94.30;;;;;;5020849;28;20025;-87
2022/11/04 08:27:17;;;;;;;19.95;9.07;;;1.30;94.30;;;;;;5017281;28;20442;-88
2022/11/04 08:29:44;;;;;;;13.40;9.70;;;1.30;94.50;;;;;;5010087;28;20033;-87
2022/11/04 08:32:11;;;;;;;21.58;9.07;;;1.30;94.60;;;;;;5038590;28;20029;-86
2022/11/04 08:34:37;;;;;;;17.73;9.52;;;1.40;94.60;;;;;;5050556;28;20075;-86
2022/11/04 08:37:03;;;;;;;14.77;8.18;;;1.50;94.60;;;;;;5017282;28;20120;-88
2022/11/04 08:39:29;;;;;;;13.00;8.27;;;1.50;94.50;;;;;;5019375;28;20402;-86
2022/11/04 08:41:56;;;;;;;15.05;5.97;;;1.50;94.50;;;;;;5001757;28;20034;-88
2022/11/04 08:44:22;;;;;;;13.23;8.32;;;1.60;94.30;;;;;;5007202;28;20128;-87
2022/11/04 08:46:48;;;;;;;12.90;7.55;;;1.60;94.30;;;;;;5002948;28;20030;-91
2022/11/04 08:49:15;;;;;;;12.40;7.30;;;1.60;94.30;;;;;;4987884;28;20022;-89
2022/11/04 08:51:48;;;;;;;15.13;8.18;;;1.60;94.40;;;;;;4988849;28;20023;-87
2022/11/04 08:54:14;;;;;;;13.20;8.40;;;1.60;94.50;;;;;;4992935;28;20011;-87
2022/11/04 08:56:41;;;;;;;20.35;9.00;;;1.60;94.50;;;;;;4989617;28;20027;-87
2022/11/04 08:59:07;;;;;;;16.45;8.88;;;1.60;94.40;;;;;;4977121;28;20027;-88
2022/11/04 09:01:35;;;;;;;13.95;6.90;;;1.60;94.30;;;;;;4988471;28;20098;-86
2022/11/04 09:04:02;;;;;;;16.23;8.30;;;1.70;94.40;;;;;;4985122;28;20023;-86
2022/11/04 09:06:38;;;;;;;11.73;8.57;;;1.70;94.30;;;;;;4994982;28;20022;-90
2022/11/04 09:09:10;;;;;;;12.77;7.53;;;1.70;94.20;;;;;;5000062;28;20050;-85
2022/11/04 09:11:39;;;;;;;18.73;8.55;;;1.60;94.20;;;;;;5009114;28;20802;-87
2022/11/04 09:14:08;;;;;;;19.90;8.10;;;1.60;94.30;;;;;;4999589;28;20074;-88
2022/11/04 09:16:35;;;;;;;15.23;6.50;;;1.60;94.30;;;;;;5002404;28;20125;-85
2022/11/04 09:19:01;;;;;;;8.15;6.25;;;1.60;94.10;;;;;;5000152;28;20023;-85
2022/11/04 09:21:27;;;;;;;14.05;8.85;;;1.60;94.10;;;;;;5007958;28;20030;-86
2022/11/04 09:23:54;;;;;;;13.70;9.18;;;1.60;94.30;;;;;;4992934;28;20045;-85
2022/11/04 09:26:25;;;;;;;17.83;10.68;;;1.60;94.30;;;;;;4997068;28;20071;-85
2022/11/04 09:28:58;;;;;;;17.95;10.75;;;1.60;94.30;;;;;;4995659;28;20033;-85
2022/11/04 09:31:26;;;;;;;12.48;8.80;;;1.60;94.40;;;;;;4994025;28;20025;-86
2022/11/04 09:33:56;;;;;;;12.70;8.07;;;1.60;94.50;;;;;;4996455;28;20053;-87
2022/11/04 09:36:22;;;;;;;10.30;7.78;;;1.70;94.60;;;;;;4996082;28;20125;-83
2022/11/04 09:38:48;;;;;;;10.57;7.88;;;1.70;94.50;;;;;;4995226;28;20106;-83
2022/11/04 09:41:46;;;;;;;14.40;8.52;;;1.70;94.30;;;;;;5036661;28;20056;-89
2022/11/04 09:44:50;;;;;;;17.70;11.13;;;1.70;94.40;;;;;;5038366;28;20041;-86
2022/11/04 09:47:21;;;;;;;10.65;7.65;;;1.70;94.30;;;;;;5023015;28;20037;-89
2022/11/04 09:49:49;;;;;;;15.65;8.88;;;1.70;94.50;;;;;;5034698;28;20024;-86
2022/11/04 09:52:25;;;;;;;16.42;10.13;;;1.70;94.60;;;;;;5030590;28;20087;-84
2022/11/04 09:54:59;;;;;;;13.55;9.35;;;1.80;94.60;;;;;;5036617;28;20091;-83
2022/11/04 09:57:25;;;;;;;14.25;9.35;;;1.80;94.40;;;;;;5046320;28;20037;-85
2022/11/04 09:59:51;;;;;;;13.60;8.55;;;1.80;94.30;;;;;;5028547;28;20076;-82
2022/11/04 10:02:35;;;;;;;14.82;9.43;;;1.80;94.30;;;;;;5017466;28;20098;-83
2022/11/04 10:05:22;;;;;;;16.55;8.45;;;1.80;94.30;;;;;;5044060;28;20100;-84
2022/11/04 10:08:45;;;;;;;12.27;8.68;;;1.90;94.30;;;;;;5039689;28;20463;-83
2022/11/04 10:11:36;;;;;;;12.48;7.57;;;1.90;94.20;;;;;;4953373;28;20094;-83
2022/11/04 10:14:28;;;;;;;16.33;9.90;;;1.80;94.10;;;;;;4949758;29;20146;-89
2022/11/04 10:17:11;;;;;;;17.55;9.63;;;1.70;94.30;;;;;;5027723;28;20045;-89
2022/11/04 10:20:04;;;;;;;14.75;9.65;;;1.70;94.60;;;;;;5026685;28;20030;-90
2022/11/04 10:22:58;;;;;;;17.65;9.27;;;1.70;94.50;;;;;;5047903;28;20018;-92
2022/11/04 10:25:48;;;;;;;16.10;9.98;;;1.70;94.40;;;;;;5019884;28;20010;-94
2022/11/04 10:28:18;;;;;;;14.93;8.82;;;1.70;94.40;;;;;;5033544;28;20007;-93
2022/11/04 10:30:54;;;;;;;15.20;8.85;;;1.70;94.40;;;;;;5021841;28;20124;-92
2022/11/04 10:33:52;;;;;;;16.77;11.23;;;1.70;94.60;;;;;;5111365;27;1524556;-94
2022/11/04 10:36:33;;;;;;;16.83;10.45;;;1.70;95.00;;;;;;5152957;28;20088;-93
2022/11/04 10:39:17;;;;;;;16.75;11.30;;;1.70;94.70;;;;;;5147370;27;20030;-93
2022/11/04 10:41:44;;;;;;;21.02;11.32;;;1.70;94.80;;;;;;5149710;27;20034;-94
2022/11/04 10:44:35;;;;;;;22.35;12.15;;;1.80;94.60;;;;;;5104935;28;20032;-91
2022/11/04 10:47:32;;;;;;;15.57;11.27;;;1.80;94.70;;;;;;5145592;28;20077;-90
2022/11/04 10:50:23;;;;;;;17.48;11.90;;;1.70;94.80;;;;;;5144969;28;20046;-92
2022/11/04 10:52:49;;;;;;;14.82;11.15;;;1.70;94.80;;;;;;5134432;28;20456;-92
2022/11/04 10:55:40;;;;;;;20.33;12.30;;;1.70;94.80;;;;;;5142658;28;20020;-89
2022/11/04 10:58:20;;;;;;;18.50;11.45;;;1.70;94.90;;;;;;5142751;28;20019;-91
2022/11/04 11:00:46;;;;;;;20.38;12.95;;;1.70;95.00;;;;;;5125754;27;20041;-87
2022/11/04 11:03:33;;;;;;;18.05;12.30;;;1.70;95.10;;;;;;5133285;28;20039;-92
2022/11/04 11:06:13;;;;;;;;;;;1.80;95.20;;;;;;5124792;28;20032;-90
2022/11/04 11:08:42;;;;;;;14.93;8.80;;;1.90;95.00;;;;;;5130100;27;19904;-89
2022/11/04 11:11:08;;;;;;;22.40;12.80;;;2.00;94.90;;;;;;5131202;28;20047;-89
2022/11/04 11:13:43;;;;;;;18.45;12.05;;;2.00;94.80;;;;;;5132680;28;20028;-86
2022/11/04 11:16:18;;;;;;;21.08;11.57;;;2.00;94.70;;;;;;5138235;28;20098;-90
2022/11/04 11:18:58;;;;;;;17.42;12.60;;;1.90;94.70;;;;;;5135119;28;20047;-88
2022/11/04 11:21:24;;;;;;;22.60;11.77;;;1.90;94.80;;;;;;5133527;27;20028;-91
2022/11/04 11:23:53;;;;;;;19.47;11.57;;;1.90;94.80;;;;;;5131291;28;20024;-90
2022/11/04 11:26:30;;;;;;;20.73;14.13;;;1.90;94.90;;;;;;5112407;28;20024;-89
2022/11/04 11:29:01;;;;;;;21.63;13.93;;;1.90;94.90;;;;;;5135317;27;20016;-87
2022/11/04 11:31:36;;;;;;;30.42;13.32;;;2.00;94.80;;;;;;5111919;27;20152;-88
2022/11/04 11:34:06;;;;;;;21.98;13.73;;;2.00;94.90;;;;;;5110198;28;20045;-89
2022/11/04 11:36:36;;;;;;;22.75;13.20;;;2.00;94.80;;;;;;5120848;28;20122;-89
2022/11/04 11:39:22;;;;;;;22.75;13.25;;;2.10;94.90;;;;;;5094465;28;20020;-90
2022/11/04 11:42:06;;;;;;;23.90;15.10;;;2.20;94.80;;;;;;5116808;28;20024;-90
2022/11/04 11:44:41;;;;;;;25.05;14.10;;;2.20;94.60;;;;;;5086466;28;20037;-89
2022/11/04 11:47:53;;;;;;;22.80;12.82;;;2.10;94.40;;;;;;5109616;28;20016;-90
2022/11/04 11:50:36;;;;;;;25.58;15.25;;;2.10;94.50;;;;;;5035795;28;20022;-87
2022/11/04 11:53:23;;;;;;;21.08;13.88;;;2.10;94.50;;;;;;5019073;28;20038;-89
2022/11/04 11:56:01;;;;;;;24.83;13.98;;;2.00;94.50;;;;;;5007259;28;20105;-90
2022/11/04 11:58:52;;;;;;;23.38;13.13;;;2.00;94.70;;;;;;5020951;28;20037;-89
2022/11/04 12:01:24;;;;;;;21.65;14.05;;;2.10;94.80;;;;;;5028304;28;20038;-90
2022/11/04 12:03:51;;;;;;;23.33;14.05;;;2.00;94.60;;;;;;5026765;28;20017;-91
2022/11/04 12:06:17;;;;;;;17.92;12.38;;;2.10;94.70;;;;;;5003605;28;20106;-88
2022/11/04 12:09:09;;;;;;;21.30;13.32;;;2.10;94.50;;;;;;5001957;28;20069;-92
2022/11/04 12:12:06;;;;;;;19.25;13.68;;;2.10;94.50;;;;;;5015781;28;20068;-90
2022/11/04 12:14:54;;;;;;;23.63;13.57;;;2.00;94.50;;;;;;5032261;28;20569;-86
2022/11/04 12:17:28;;;;;;;;;;;2.00;94.70;;;;;;5023725;28;20037;-92
2022/11/04 12:20:33;;;;;;;24.38;13.68;;;2.00;94.60;;;;;;5019974;28;19897;-93
2022/11/04 12:23:49;;;;;;;16.85;12.35;;;2.00;94.70;;;;;;5038771;28;20018;-89
2022/11/04 12:26:52;;;;;;;19.10;12.15;;;2.00;94.70;;;;;;5026857;28;20036;-91
2022/11/04 12:29:29;;;;;;;18.88;12.85;;;2.00;94.60;;;;;;5050611;28;20065;-92
2022/11/04 12:31:58;;;;;;;;;;;1.90;94.80;;;;;;5027938;28;20060;-93
2022/11/04 12:34:24;;;;;;;36.17;18.33;;;1.90;94.90;;;;;;5042816;28;20032;-92
2022/11/04 12:37:15;;;;;;;28.15;13.15;;;1.90;94.90;;;;;;5045083;28;20029;-92
2022/11/04 12:40:05;;;;;;;22.50;12.50;;;1.90;95.10;;;;;;5025006;28;20026;-92
2022/11/04 12:42:37;;;;;;;26.50;13.02;;;2.00;94.90;;;;;;5038485;28;20485;-92
2022/11/04 12:45:17;;;;;;;22.17;12.43;;;2.00;94.80;;;;;;5041847;28;20018;-91
2022/11/04 12:47:45;;;;;;;19.23;13.95;;;2.00;94.70;;;;;;5041731;28;20057;-91
2022/11/04 12:50:49;;;;;;;;;;;2.00;94.70;;;;;;5043370;28;20026;-88
2022/11/04 12:53:31;;;;;;;23.02;11.55;;;2.00;94.70;;;;;;4961644;28;20053;-89
2022/11/04 12:56:16;;;;;;;20.65;13.60;;;2.00;94.70;;;;;;4967021;28;20101;-88
2022/11/04 12:58:56;;;;;;;20.20;13.00;;;2.00;94.70;;;;;;4981207;28;20051;-88
2022/11/04 13:01:26;;;;;;;18.70;11.32;;;2.00;94.90;;;;;;4982041;28;20043;-88
2022/11/04 13:04:12;;;;;;;17.70;11.93;;;2.00;94.80;;;;;;5020290;28;20787;-87
2022/11/04 13:06:37;;;;;;;23.15;12.43;;;2.00;94.80;;;;;;5035621;28;20025;-91
2022/11/04 13:09:41;;;;;;;21.13;12.73;;;2.00;94.90;;;;;;5038409;28;20047;-91
2022/11/04 13:12:20;;;;;;;19.30;12.48;;;2.00;94.90;;;;;;5064397;28;20034;-88
2022/11/04 13:15:03;;;;;;;;;;;2.00;94.90;;;;;;5040545;28;20062;-91
2022/11/04 13:17:36;;;;;;;24.05;11.07;;;2.10;95.00;;;;;;5047920;28;19905;-91
2022/11/04 13:20:18;;;;;;;22.52;12.52;;;2.10;94.90;;;;;;5024037;28;20025;-89
2022/11/04 13:22:52;;;;;;;24.85;11.93;;;2.00;94.80;;;;;;5037600;28;20109;-86
2022/11/04 13:25:46;;;;;;;19.02;10.95;;;1.90;95.00;;;;;;5093002;28;20032;-92
2022/11/04 13:28:19;;;;;;;20.73;12.63;;;2.00;95.20;;;;;;5101910;28;20115;-94
2022/11/04 13:31:08;;;;;;;22.15;11.60;;;2.00;95.20;;;;;;5111104;28;20111;-89
2022/11/04 13:34:05;;;;;;;24.60;14.60;;;2.00;95.20;;;;;;5103081;28;20047;-90
2022/11/04 13:37:07;;;;;;;24.17;14.95;;;1.90;95.30;;;;;;5095310;28;20025;-89
2022/11/04 13:39:42;;;;;;;25.20;14.80;;;1.90;95.40;;;;;;5093403;28;20024;-91
2022/11/04 13:42:20;;;;;;;25.08;17.08;;;1.90;95.40;;;;;;5097680;28;20492;-86
2022/11/04 13:44:51;;;;;;;27.52;17.30;;;2.00;95.50;;;;;;5097582;28;20024;-87